sensor_id;sensor_type;location;lat;lon;timestamp;P1;durP1;ratioP1;P2;durP2;ratioP2
61054;SDS011;46939;48.940;8.258;2022-11-11T00:02:08;11.35;;;6.65;;
61054;SDS011;46939;48.940;8.258;2022-11-11T00:04:39;17.80;;;8.93;;
61054;SDS011;46939;48.940;8.258;2022-11-11T00:07:07;13.82;;;8.48;;
61054;SDS011;46939;48.940;8.258;2022-11-11T00:09:35;12.25;;;8.13;;
61054;SDS011;46939;48.940;8.258;2022-11-11T00:12:04;13.60;;;6.97;;
61054;SDS011;46939;48.940;8.258;2022-11-11T00:14:33;11.93;;;7.60;;
61054;SDS011;46939;48.940;8.258;2022-11-11T00:17:01;11.57;;;7.47;;
61054;SDS011;46939;48.940;8.258;2022-11-11T00:19:44;9.55;;;5.75;;
61054;SDS011;46939;48.940;8.258;2022-11-11T00:22:25;18.50;;;8.25;;
61054;SDS011;46939;48.940;8.258;2022-11-11T00:25:06;22.05;;;10.25;;
61054;SDS011;46939;48.940;8.258;2022-11-11T00:27:37;20.25;;;10.48;;
61054;SDS011;46939;48.940;8.258;2022-11-11T00:30:07;20.20;;;11.77;;
61054;SDS011;46939;48.940;8.258;2022-11-11T00:32:36;18.15;;;10.32;;
61054;SDS011;46939;48.940;8.258;2022-11-11T00:35:07;16.67;;;9.77;;
61054;SDS011;46939;48.940;8.258;2022-11-11T00:37:49;23.42;;;11.65;;
61054;SDS011;46939;48.940;8.258;2022-11-11T00:40:17;16.15;;;9.80;;
61054;SDS011;46939;48.940;8.258;2022-11-11T00:42:45;20.85;;;11.65;;
61054;SDS011;46939;48.940;8.258;2022-11-11T00:45:14;23.73;;;11.85;;
61054;SDS011;46939;48.940;8.258;2022-11-11T00:47:42;27.58;;;14.63;;
61054;SDS011;46939;48.940;8.258;2022-11-11T00:50:40;20.23;;;11.48;;
61054;SDS011;46939;48.940;8.258;2022-11-11T00:53:28;26.67;;;14.82;;
61054;SDS011;46939;48.940;8.258;2022-11-11T00:55:59;26.48;;;14.02;;
61054;SDS011;46939;48.940;8.258;2022-11-11T00:58:27;22.75;;;12.85;;
61054;SDS011;46939;48.940;8.258;2022-11-11T01:00:56;27.33;;;12.32;;
61054;SDS011;46939;48.940;8.258;2022-11-11T01:03:24;20.20;;;10.77;;
61054;SDS011;46939;48.940;8.258;2022-11-11T01:05:55;20.77;;;10.93;;
61054;SDS011;46939;48.940;8.258;2022-11-11T01:08:27;30.83;;;10.95;;
61054;SDS011;46939;48.940;8.258;2022-11-11T01:10:55;15.35;;;9.52;;
61054;SDS011;46939;48.940;8.258;2022-11-11T01:13:25;21.85;;;9.52;;
61054;SDS011;46939;48.940;8.258;2022-11-11T01:15:56;29.23;;;10.93;;
61054;SDS011;46939;48.940;8.258;2022-11-11T01:18:26;17.55;;;9.30;;
61054;SDS011;46939;48.940;8.258;2022-11-11T01:20:59;13.20;;;8.32;;
61054;SDS011;46939;48.940;8.258;2022-11-11T01:23:28;13.55;;;8.02;;
61054;SDS011;46939;48.940;8.258;2022-11-11T01:26:00;19.25;;;9.65;;
61054;SDS011;46939;48.940;8.258;2022-11-11T01:28:29;15.35;;;8.73;;
61054;SDS011;46939;48.940;8.258;2022-11-11T01:31:01;13.40;;;8.48;;
61054;SDS011;46939;48.940;8.258;2022-11-11T01:33:29;16.63;;;9.77;;
61054;SDS011;46939;48.940;8.258;2022-11-11T01:36:09;18.50;;;10.38;;
61054;SDS011;46939;48.940;8.258;2022-11-11T01:38:39;24.25;;;10.30;;
61054;SDS011;46939;48.940;8.258;2022-11-11T01:41:10;16.60;;;9.95;;
61054;SDS011;46939;48.940;8.258;2022-11-11T01:43:53;13.55;;;8.55;;
61054;SDS011;46939;48.940;8.258;2022-11-11T01:46:28;17.65;;;8.80;;
61054;SDS011;46939;48.940;8.258;2022-11-11T01:49:02;15.90;;;8.32;;
61054;SDS011;46939;48.940;8.258;2022-11-11T01:51:50;11.07;;;7.30;;
61054;SDS011;46939;48.940;8.258;2022-11-11T01:54:24;12.43;;;7.35;;
61054;SDS011;46939;48.940;8.258;2022-11-11T01:56:58;13.98;;;7.95;;
61054;SDS011;46939;48.940;8.258;2022-11-11T01:59:29;18.55;;;8.35;;
61054;SDS011;46939;48.940;8.258;2022-11-11T02:01:59;12.23;;;7.05;;
61054;SDS011;46939;48.940;8.258;2022-11-11T02:04:30;12.93;;;7.07;;
61054;SDS011;46939;48.940;8.258;2022-11-11T02:07:15;11.90;;;7.45;;
61054;SDS011;46939;48.940;8.258;2022-11-11T02:09:44;14.75;;;7.55;;
61054;SDS011;46939;48.940;8.258;2022-11-11T02:12:15;10.45;;;5.82;;
61054;SDS011;46939;48.940;8.258;2022-11-11T02:15:04;8.00;;;5.28;;
61054;SDS011;46939;48.940;8.258;2022-11-11T02:17:33;11.13;;;6.65;;
61054;SDS011;46939;48.940;8.258;2022-11-11T02:20:02;13.50;;;8.20;;
61054;SDS011;46939;48.940;8.258;2022-11-11T02:22:39;12.07;;;6.80;;
61054;SDS011;46939;48.940;8.258;2022-11-11T02:25:15;14.55;;;8.60;;
61054;SDS011;46939;48.940;8.258;2022-11-11T02:27:47;12.68;;;8.13;;
61054;SDS011;46939;48.940;8.258;2022-11-11T02:30:18;13.60;;;8.63;;
61054;SDS011;46939;48.940;8.258;2022-11-11T02:32:48;13.88;;;8.20;;
61054;SDS011;46939;48.940;8.258;2022-11-11T02:35:18;17.45;;;8.98;;
61054;SDS011;46939;48.940;8.258;2022-11-11T02:37:49;11.65;;;7.78;;
61054;SDS011;46939;48.940;8.258;2022-11-11T02:40:23;15.30;;;8.90;;
61054;SDS011;46939;48.940;8.258;2022-11-11T02:42:55;13.68;;;8.07;;
61054;SDS011;46939;48.940;8.258;2022-11-11T02:45:21;12.45;;;7.15;;
61054;SDS011;46939;48.940;8.258;2022-11-11T02:47:50;19.58;;;6.68;;
61054;SDS011;46939;48.940;8.258;2022-11-11T02:50:18;11.13;;;5.90;;
61054;SDS011;46939;48.940;8.258;2022-11-11T02:52:46;14.00;;;6.03;;
61054;SDS011;46939;48.940;8.258;2022-11-11T02:55:15;17.85;;;6.25;;
61054;SDS011;46939;48.940;8.258;2022-11-11T02:57:46;8.70;;;5.10;;
61054;SDS011;46939;48.940;8.258;2022-11-11T03:00:15;32.42;;;6.05;;
61054;SDS011;46939;48.940;8.258;2022-11-11T03:02:44;11.32;;;5.13;;
61054;SDS011;46939;48.940;8.258;2022-11-11T03:05:13;11.70;;;5.30;;
61054;SDS011;46939;48.940;8.258;2022-11-11T03:07:41;12.40;;;4.97;;
61054;SDS011;46939;48.940;8.258;2022-11-11T03:10:09;7.97;;;5.28;;
61054;SDS011;46939;48.940;8.258;2022-11-11T03:12:38;8.00;;;4.85;;
61054;SDS011;46939;48.940;8.258;2022-11-11T03:15:09;14.75;;;5.32;;
61054;SDS011;46939;48.940;8.258;2022-11-11T03:17:38;7.45;;;4.30;;
61054;SDS011;46939;48.940;8.258;2022-11-11T03:20:04;4.95;;;3.30;;
61054;SDS011;46939;48.940;8.258;2022-11-11T03:22:57;9.30;;;4.68;;
61054;SDS011;46939;48.940;8.258;2022-11-11T03:25:26;8.57;;;5.00;;
61054;SDS011;46939;48.940;8.258;2022-11-11T03:28:04;10.07;;;5.38;;
61054;SDS011;46939;48.940;8.258;2022-11-11T03:30:36;11.20;;;5.10;;
61054;SDS011;46939;48.940;8.258;2022-11-11T03:33:06;15.85;;;5.47;;
61054;SDS011;46939;48.940;8.258;2022-11-11T03:35:34;7.50;;;4.60;;
61054;SDS011;46939;48.940;8.258;2022-11-11T03:38:04;33.40;;;5.40;;
61054;SDS011;46939;48.940;8.258;2022-11-11T03:40:45;8.90;;;4.68;;
61054;SDS011;46939;48.940;8.258;2022-11-11T03:43:15;6.57;;;3.80;;
61054;SDS011;46939;48.940;8.258;2022-11-11T03:45:48;10.88;;;5.88;;
61054;SDS011;46939;48.940;8.258;2022-11-11T03:48:16;17.70;;;9.15;;
61054;SDS011;46939;48.940;8.258;2022-11-11T03:50:45;12.85;;;7.70;;
61054;SDS011;46939;48.940;8.258;2022-11-11T03:53:13;23.65;;;7.85;;
61054;SDS011;46939;48.940;8.258;2022-11-11T03:55:44;10.02;;;5.68;;
61054;SDS011;46939;48.940;8.258;2022-11-11T03:58:12;8.77;;;4.50;;
61054;SDS011;46939;48.940;8.258;2022-11-11T04:00:41;8.93;;;4.38;;
61054;SDS011;46939;48.940;8.258;2022-11-11T04:03:13;8.52;;;4.57;;
61054;SDS011;46939;48.940;8.258;2022-11-11T04:08:41;6.93;;;3.70;;
61054;SDS011;46939;48.940;8.258;2022-11-11T04:11:23;7.10;;;4.47;;
61054;SDS011;46939;48.940;8.258;2022-11-11T04:13:54;7.85;;;4.47;;
61054;SDS011;46939;48.940;8.258;2022-11-11T04:16:38;8.65;;;5.13;;
61054;SDS011;46939;48.940;8.258;2022-11-11T04:19:09;9.25;;;4.20;;
61054;SDS011;46939;48.940;8.258;2022-11-11T04:21:50;11.48;;;5.40;;
61054;SDS011;46939;48.940;8.258;2022-11-11T04:24:19;14.38;;;5.40;;
61054;SDS011;46939;48.940;8.258;2022-11-11T04:27:01;15.20;;;5.25;;
61054;SDS011;46939;48.940;8.258;2022-11-11T04:29:31;11.77;;;5.43;;
61054;SDS011;46939;48.940;8.258;2022-11-11T04:31:57;6.35;;;3.67;;
61054;SDS011;46939;48.940;8.258;2022-11-11T04:34:42;5.45;;;3.70;;
61054;SDS011;46939;48.940;8.258;2022-11-11T04:37:11;5.90;;;3.70;;
61054;SDS011;46939;48.940;8.258;2022-11-11T04:39:39;64.45;;;7.22;;
61054;SDS011;46939;48.940;8.258;2022-11-11T04:42:20;7.78;;;4.55;;
61054;SDS011;46939;48.940;8.258;2022-11-11T04:44:49;30.60;;;5.82;;
61054;SDS011;46939;48.940;8.258;2022-11-11T04:47:30;6.32;;;3.67;;
61054;SDS011;46939;48.940;8.258;2022-11-11T04:50:01;15.45;;;5.90;;
61054;SDS011;46939;48.940;8.258;2022-11-11T04:52:30;6.93;;;4.25;;
61054;SDS011;46939;48.940;8.258;2022-11-11T04:54:58;7.88;;;4.68;;
61054;SDS011;46939;48.940;8.258;2022-11-11T04:57:40;32.03;;;6.20;;
61054;SDS011;46939;48.940;8.258;2022-11-11T05:00:09;8.93;;;4.90;;
61054;SDS011;46939;48.940;8.258;2022-11-11T05:02:40;36.20;;;5.82;;
61054;SDS011;46939;48.940;8.258;2022-11-11T05:05:24;7.28;;;4.50;;
61054;SDS011;46939;48.940;8.258;2022-11-11T05:07:53;7.43;;;4.22;;
61054;SDS011;46939;48.940;8.258;2022-11-11T05:10:34;24.80;;;5.75;;
61054;SDS011;46939;48.940;8.258;2022-11-11T05:13:03;34.00;;;5.38;;
61054;SDS011;46939;48.940;8.258;2022-11-11T05:15:45;13.68;;;5.18;;
61054;SDS011;46939;48.940;8.258;2022-11-11T05:18:26;9.63;;;4.72;;
61054;SDS011;46939;48.940;8.258;2022-11-11T05:21:11;10.32;;;4.68;;
61054;SDS011;46939;48.940;8.258;2022-11-11T05:23:48;26.45;;;4.95;;
61054;SDS011;46939;48.940;8.258;2022-11-11T05:26:29;11.60;;;4.72;;
61054;SDS011;46939;48.940;8.258;2022-11-11T05:28:58;7.05;;;3.90;;
61054;SDS011;46939;48.940;8.258;2022-11-11T05:31:27;6.55;;;3.53;;
61054;SDS011;46939;48.940;8.258;2022-11-11T05:33:56;8.30;;;4.55;;
61054;SDS011;46939;48.940;8.258;2022-11-11T05:36:27;6.45;;;3.92;;
61054;SDS011;46939;48.940;8.258;2022-11-11T05:38:55;13.07;;;5.70;;
61054;SDS011;46939;48.940;8.258;2022-11-11T05:41:23;27.85;;;5.75;;
61054;SDS011;46939;48.940;8.258;2022-11-11T05:43:52;16.92;;;4.72;;
61054;SDS011;46939;48.940;8.258;2022-11-11T05:46:20;16.10;;;4.43;;
61054;SDS011;46939;48.940;8.258;2022-11-11T05:48:48;9.93;;;4.82;;
61054;SDS011;46939;48.940;8.258;2022-11-11T05:51:32;31.20;;;5.18;;
61054;SDS011;46939;48.940;8.258;2022-11-11T05:54:00;7.80;;;4.03;;
61054;SDS011;46939;48.940;8.258;2022-11-11T05:56:28;32.83;;;5.57;;
61054;SDS011;46939;48.940;8.258;2022-11-11T05:58:57;9.48;;;4.70;;
61054;SDS011;46939;48.940;8.258;2022-11-11T06:01:25;12.60;;;4.72;;
61054;SDS011;46939;48.940;8.258;2022-11-11T06:03:53;25.10;;;4.88;;
61054;SDS011;46939;48.940;8.258;2022-11-11T06:06:22;21.42;;;5.20;;
61054;SDS011;46939;48.940;8.258;2022-11-11T06:08:53;10.50;;;4.45;;
61054;SDS011;46939;48.940;8.258;2022-11-11T06:11:21;9.88;;;4.82;;
61054;SDS011;46939;48.940;8.258;2022-11-11T06:13:52;13.85;;;4.80;;
61054;SDS011;46939;48.940;8.258;2022-11-11T06:16:20;37.20;;;5.97;;
61054;SDS011;46939;48.940;8.258;2022-11-11T06:18:49;10.30;;;4.47;;
61054;SDS011;46939;48.940;8.258;2022-11-11T06:21:18;28.42;;;5.05;;
61054;SDS011;46939;48.940;8.258;2022-11-11T06:23:46;7.15;;;4.35;;
61054;SDS011;46939;48.940;8.258;2022-11-11T06:26:17;18.30;;;4.80;;
61054;SDS011;46939;48.940;8.258;2022-11-11T06:28:44;17.92;;;4.68;;
61054;SDS011;46939;48.940;8.258;2022-11-11T06:31:14;23.48;;;4.63;;
61054;SDS011;46939;48.940;8.258;2022-11-11T06:33:44;14.77;;;4.35;;
61054;SDS011;46939;48.940;8.258;2022-11-11T06:36:13;5.60;;;3.60;;
61054;SDS011;46939;48.940;8.258;2022-11-11T06:38:42;7.53;;;3.95;;
61054;SDS011;46939;48.940;8.258;2022-11-11T06:41:11;15.88;;;3.97;;
61054;SDS011;46939;48.940;8.258;2022-11-11T06:43:43;21.30;;;3.80;;
61054;SDS011;46939;48.940;8.258;2022-11-11T06:46:13;21.40;;;4.28;;
61054;SDS011;46939;48.940;8.258;2022-11-11T06:48:46;6.70;;;3.65;;
61054;SDS011;46939;48.940;8.258;2022-11-11T06:51:14;6.43;;;3.22;;
61054;SDS011;46939;48.940;8.258;2022-11-11T06:53:43;7.85;;;4.07;;
61054;SDS011;46939;48.940;8.258;2022-11-11T06:56:12;11.85;;;4.15;;
61054;SDS011;46939;48.940;8.258;2022-11-11T06:58:43;4.90;;;2.97;;
61054;SDS011;46939;48.940;8.258;2022-11-11T07:01:12;6.72;;;4.07;;
61054;SDS011;46939;48.940;8.258;2022-11-11T07:03:41;5.78;;;3.33;;
61054;SDS011;46939;48.940;8.258;2022-11-11T07:06:09;25.58;;;5.43;;
61054;SDS011;46939;48.940;8.258;2022-11-11T07:08:38;51.78;;;5.45;;
61054;SDS011;46939;48.940;8.258;2022-11-11T07:11:08;10.00;;;4.18;;
61054;SDS011;46939;48.940;8.258;2022-11-11T07:13:38;9.23;;;4.40;;
61054;SDS011;46939;48.940;8.258;2022-11-11T07:16:09;49.63;;;5.80;;
61054;SDS011;46939;48.940;8.258;2022-11-11T07:18:37;4.95;;;3.20;;
61054;SDS011;46939;48.940;8.258;2022-11-11T07:21:05;21.98;;;4.60;;
61054;SDS011;46939;48.940;8.258;2022-11-11T07:23:34;21.20;;;4.75;;
61054;SDS011;46939;48.940;8.258;2022-11-11T07:26:02;5.55;;;3.30;;
61054;SDS011;46939;48.940;8.258;2022-11-11T07:28:33;5.63;;;3.45;;
61054;SDS011;46939;48.940;8.258;2022-11-11T07:31:02;18.77;;;4.13;;
61054;SDS011;46939;48.940;8.258;2022-11-11T07:33:32;10.32;;;4.95;;
61054;SDS011;46939;48.940;8.258;2022-11-11T07:36:01;12.45;;;5.07;;
61054;SDS011;46939;48.940;8.258;2022-11-11T07:38:29;28.02;;;5.25;;
61054;SDS011;46939;48.940;8.258;2022-11-11T07:40:58;5.85;;;3.53;;
61054;SDS011;46939;48.940;8.258;2022-11-11T07:43:26;7.40;;;4.30;;
61054;SDS011;46939;48.940;8.258;2022-11-11T07:45:54;29.05;;;7.28;;
61054;SDS011;46939;48.940;8.258;2022-11-11T07:48:23;28.38;;;5.50;;
61054;SDS011;46939;48.940;8.258;2022-11-11T07:50:53;5.88;;;3.40;;
61054;SDS011;46939;48.940;8.258;2022-11-11T07:53:22;12.50;;;4.13;;
61054;SDS011;46939;48.940;8.258;2022-11-11T07:55:52;6.50;;;3.53;;
61054;SDS011;46939;48.940;8.258;2022-11-11T07:58:20;9.60;;;4.57;;
61054;SDS011;46939;48.940;8.258;2022-11-11T08:00:49;7.28;;;4.05;;
61054;SDS011;46939;48.940;8.258;2022-11-11T08:03:18;8.77;;;4.10;;
61054;SDS011;46939;48.940;8.258;2022-11-11T08:05:46;7.60;;;4.35;;
61054;SDS011;46939;48.940;8.258;2022-11-11T08:08:17;7.30;;;3.60;;
61054;SDS011;46939;48.940;8.258;2022-11-11T08:10:49;5.07;;;3.55;;
61054;SDS011;46939;48.940;8.258;2022-11-11T08:13:20;5.63;;;3.58;;
61054;SDS011;46939;48.940;8.258;2022-11-11T08:16:00;8.13;;;4.35;;
61054;SDS011;46939;48.940;8.258;2022-11-11T08:18:30;6.72;;;4.20;;
61054;SDS011;46939;48.940;8.258;2022-11-11T08:20:59;14.00;;;4.65;;
61054;SDS011;46939;48.940;8.258;2022-11-11T08:23:30;7.78;;;4.53;;
61054;SDS011;46939;48.940;8.258;2022-11-11T08:25:59;6.50;;;4.03;;
61054;SDS011;46939;48.940;8.258;2022-11-11T08:28:29;5.05;;;3.15;;
61054;SDS011;46939;48.940;8.258;2022-11-11T08:31:00;6.20;;;4.10;;
61054;SDS011;46939;48.940;8.258;2022-11-11T08:33:29;7.63;;;4.13;;
61054;SDS011;46939;48.940;8.258;2022-11-11T08:35:58;7.18;;;4.22;;
61054;SDS011;46939;48.940;8.258;2022-11-11T08:38:27;7.13;;;4.10;;
61054;SDS011;46939;48.940;8.258;2022-11-11T08:40:58;6.35;;;3.53;;
61054;SDS011;46939;48.940;8.258;2022-11-11T08:43:27;12.65;;;3.83;;
61054;SDS011;46939;48.940;8.258;2022-11-11T08:45:56;13.32;;;3.83;;
61054;SDS011;46939;48.940;8.258;2022-11-11T08:48:25;8.77;;;4.10;;
61054;SDS011;46939;48.940;8.258;2022-11-11T08:50:54;7.25;;;4.20;;
61054;SDS011;46939;48.940;8.258;2022-11-11T08:53:22;33.45;;;5.03;;
61054;SDS011;46939;48.940;8.258;2022-11-11T08:55:51;13.43;;;4.40;;
61054;SDS011;46939;48.940;8.258;2022-11-11T08:58:22;7.25;;;4.32;;
61054;SDS011;46939;48.940;8.258;2022-11-11T09:00:50;45.53;;;5.72;;
61054;SDS011;46939;48.940;8.258;2022-11-11T09:03:19;34.13;;;6.05;;
61054;SDS011;46939;48.940;8.258;2022-11-11T09:05:47;7.00;;;4.47;;
61054;SDS011;46939;48.940;8.258;2022-11-11T09:08:15;17.25;;;4.78;;
61054;SDS011;46939;48.940;8.258;2022-11-11T09:10:44;11.85;;;4.32;;
61054;SDS011;46939;48.940;8.258;2022-11-11T09:13:12;25.98;;;5.00;;
61054;SDS011;46939;48.940;8.258;2022-11-11T09:15:43;9.85;;;4.40;;
61054;SDS011;46939;48.940;8.258;2022-11-11T09:18:11;7.90;;;4.70;;
61054;SDS011;46939;48.940;8.258;2022-11-11T09:20:40;36.35;;;6.05;;
61054;SDS011;46939;48.940;8.258;2022-11-11T09:23:08;8.48;;;4.35;;
61054;SDS011;46939;48.940;8.258;2022-11-11T09:25:36;14.05;;;4.97;;
61054;SDS011;46939;48.940;8.258;2022-11-11T09:28:05;18.40;;;5.88;;
61054;SDS011;46939;48.940;8.258;2022-11-11T09:30:33;7.82;;;4.90;;
61054;SDS011;46939;48.940;8.258;2022-11-11T09:33:04;9.27;;;5.22;;
61054;SDS011;46939;48.940;8.258;2022-11-11T09:35:33;12.35;;;5.50;;
61054;SDS011;46939;48.940;8.258;2022-11-11T09:38:03;15.68;;;5.55;;
61054;SDS011;46939;48.940;8.258;2022-11-11T09:40:34;29.20;;;6.00;;
61054;SDS011;46939;48.940;8.258;2022-11-11T09:43:15;10.07;;;5.03;;
61054;SDS011;46939;48.940;8.258;2022-11-11T09:45:53;6.43;;;4.22;;
61054;SDS011;46939;48.940;8.258;2022-11-11T09:48:37;15.63;;;5.85;;
61054;SDS011;46939;48.940;8.258;2022-11-11T09:51:15;7.72;;;4.15;;
61054;SDS011;46939;48.940;8.258;2022-11-11T09:53:48;7.30;;;4.40;;
61054;SDS011;46939;48.940;8.258;2022-11-11T09:56:23;11.55;;;5.78;;
61054;SDS011;46939;48.940;8.258;2022-11-11T09:58:56;11.85;;;5.95;;
61054;SDS011;46939;48.940;8.258;2022-11-11T10:01:31;13.60;;;4.97;;
61054;SDS011;46939;48.940;8.258;2022-11-11T10:04:11;9.75;;;5.68;;
61054;SDS011;46939;48.940;8.258;2022-11-11T10:06:47;8.25;;;4.57;;
61054;SDS011;46939;48.940;8.258;2022-11-11T10:09:21;55.65;;;6.30;;
61054;SDS011;46939;48.940;8.258;2022-11-11T10:11:58;8.50;;;4.60;;
61054;SDS011;46939;48.940;8.258;2022-11-11T10:14:36;6.03;;;4.03;;
61054;SDS011;46939;48.940;8.258;2022-11-11T10:17:10;6.88;;;4.25;;
61054;SDS011;46939;48.940;8.258;2022-11-11T10:19:54;10.07;;;6.30;;
61054;SDS011;46939;48.940;8.258;2022-11-11T10:22:31;9.82;;;5.55;;
61054;SDS011;46939;48.940;8.258;2022-11-11T10:27:50;10.25;;;6.10;;
61054;SDS011;46939;48.940;8.258;2022-11-11T10:30:22;11.25;;;6.38;;
61054;SDS011;46939;48.940;8.258;2022-11-11T10:32:53;11.23;;;6.13;;
61054;SDS011;46939;48.940;8.258;2022-11-11T10:35:27;13.18;;;6.40;;
61054;SDS011;46939;48.940;8.258;2022-11-11T10:38:00;11.77;;;6.15;;
61054;SDS011;46939;48.940;8.258;2022-11-11T10:40:39;10.02;;;6.40;;
61054;SDS011;46939;48.940;8.258;2022-11-11T10:43:13;11.43;;;5.90;;
61054;SDS011;46939;48.940;8.258;2022-11-11T10:45:49;15.00;;;6.70;;
61054;SDS011;46939;48.940;8.258;2022-11-11T10:48:29;8.85;;;5.20;;
61054;SDS011;46939;48.940;8.258;2022-11-11T10:51:09;16.92;;;6.38;;
61054;SDS011;46939;48.940;8.258;2022-11-11T10:53:41;9.85;;;5.93;;
61054;SDS011;46939;48.940;8.258;2022-11-11T10:56:16;10.30;;;6.30;;
61054;SDS011;46939;48.940;8.258;2022-11-11T10:58:49;8.15;;;5.15;;
61054;SDS011;46939;48.940;8.258;2022-11-11T11:01:24;12.25;;;7.18;;
61054;SDS011;46939;48.940;8.258;2022-11-11T11:03:58;8.07;;;4.57;;
61054;SDS011;46939;48.940;8.258;2022-11-11T11:06:33;8.25;;;4.90;;
61054;SDS011;46939;48.940;8.258;2022-11-11T11:09:07;12.10;;;6.47;;
61054;SDS011;46939;48.940;8.258;2022-11-11T11:11:42;7.90;;;4.85;;
61054;SDS011;46939;48.940;8.258;2022-11-11T11:14:18;9.35;;;5.78;;
61054;SDS011;46939;48.940;8.258;2022-11-11T11:16:52;8.23;;;4.53;;
61054;SDS011;46939;48.940;8.258;2022-11-11T11:19:23;14.77;;;6.72;;
61054;SDS011;46939;48.940;8.258;2022-11-11T11:21:55;9.52;;;5.97;;
61054;SDS011;46939;48.940;8.258;2022-11-11T11:24:25;9.40;;;5.82;;
61054;SDS011;46939;48.940;8.258;2022-11-11T11:26:57;13.52;;;6.60;;
61054;SDS011;46939;48.940;8.258;2022-11-11T11:29:27;7.93;;;4.35;;
61054;SDS011;46939;48.940;8.258;2022-11-11T11:34:46;14.25;;;7.10;;
61054;SDS011;46939;48.940;8.258;2022-11-11T11:37:19;15.07;;;8.77;;
61054;SDS011;46939;48.940;8.258;2022-11-11T11:39:57;12.52;;;6.85;;
61054;SDS011;46939;48.940;8.258;2022-11-11T11:42:31;13.32;;;7.32;;
61054;SDS011;46939;48.940;8.258;2022-11-11T11:48:00;13.18;;;7.55;;
61054;SDS011;46939;48.940;8.258;2022-11-11T11:50:44;13.80;;;7.43;;
61054;SDS011;46939;48.940;8.258;2022-11-11T11:53:24;13.30;;;7.65;;
61054;SDS011;46939;48.940;8.258;2022-11-11T11:56:02;10.05;;;6.70;;
61054;SDS011;46939;48.940;8.258;2022-11-11T11:58:41;12.98;;;7.93;;
61054;SDS011;46939;48.940;8.258;2022-11-11T12:01:23;11.52;;;6.90;;
61054;SDS011;46939;48.940;8.258;2022-11-11T12:04:03;11.13;;;6.28;;
61054;SDS011;46939;48.940;8.258;2022-11-11T12:06:53;14.40;;;7.85;;
61054;SDS011;46939;48.940;8.258;2022-11-11T12:09:37;13.63;;;7.18;;
61054;SDS011;46939;48.940;8.258;2022-11-11T12:12:15;9.57;;;5.75;;
61054;SDS011;46939;48.940;8.258;2022-11-11T12:15:03;12.65;;;7.50;;
61054;SDS011;46939;48.940;8.258;2022-11-11T12:17:47;11.30;;;7.22;;
61054;SDS011;46939;48.940;8.258;2022-11-11T12:20:24;12.10;;;6.97;;
61054;SDS011;46939;48.940;8.258;2022-11-11T12:22:59;10.32;;;6.40;;
61054;SDS011;46939;48.940;8.258;2022-11-11T12:25:38;15.55;;;7.50;;
61054;SDS011;46939;48.940;8.258;2022-11-11T12:28:16;9.77;;;5.97;;
61054;SDS011;46939;48.940;8.258;2022-11-11T12:31:00;10.07;;;6.10;;
61054;SDS011;46939;48.940;8.258;2022-11-11T12:33:37;9.93;;;6.15;;
61054;SDS011;46939;48.940;8.258;2022-11-11T12:36:19;8.57;;;5.32;;
61054;SDS011;46939;48.940;8.258;2022-11-11T12:38:56;10.98;;;5.72;;
61054;SDS011;46939;48.940;8.258;2022-11-11T12:41:36;13.53;;;8.60;;
61054;SDS011;46939;48.940;8.258;2022-11-11T12:44:24;13.90;;;7.05;;
61054;SDS011;46939;48.940;8.258;2022-11-11T12:47:06;12.07;;;7.30;;
61054;SDS011;46939;48.940;8.258;2022-11-11T12:49:52;13.48;;;7.50;;
61054;SDS011;46939;48.940;8.258;2022-11-11T12:52:29;11.35;;;6.47;;
61054;SDS011;46939;48.940;8.258;2022-11-11T12:55:11;15.27;;;8.05;;
61054;SDS011;46939;48.940;8.258;2022-11-11T12:57:50;12.18;;;7.82;;
61054;SDS011;46939;48.940;8.258;2022-11-11T13:00:38;14.50;;;8.15;;
61054;SDS011;46939;48.940;8.258;2022-11-11T13:03:21;14.07;;;8.07;;
61054;SDS011;46939;48.940;8.258;2022-11-11T13:06:04;11.27;;;7.03;;
61054;SDS011;46939;48.940;8.258;2022-11-11T13:08:52;12.90;;;8.05;;
61054;SDS011;46939;48.940;8.258;2022-11-11T13:11:43;14.75;;;8.70;;
61054;SDS011;46939;48.940;8.258;2022-11-11T13:14:28;12.00;;;6.70;;
61054;SDS011;46939;48.940;8.258;2022-11-11T13:17:07;11.95;;;6.72;;
61054;SDS011;46939;48.940;8.258;2022-11-11T13:19:40;9.18;;;5.70;;
61054;SDS011;46939;48.940;8.258;2022-11-11T13:22:14;12.95;;;8.10;;
61054;SDS011;46939;48.940;8.258;2022-11-11T13:24:49;12.35;;;6.20;;
61054;SDS011;46939;48.940;8.258;2022-11-11T13:27:19;14.15;;;7.32;;
61054;SDS011;46939;48.940;8.258;2022-11-11T13:30:02;13.75;;;8.05;;
61054;SDS011;46939;48.940;8.258;2022-11-11T13:32:35;11.27;;;6.38;;
61054;SDS011;46939;48.940;8.258;2022-11-11T13:35:14;12.60;;;7.63;;
61054;SDS011;46939;48.940;8.258;2022-11-11T13:37:48;11.70;;;6.78;;
61054;SDS011;46939;48.940;8.258;2022-11-11T13:40:25;12.00;;;7.20;;
61054;SDS011;46939;48.940;8.258;2022-11-11T13:43:01;12.20;;;7.32;;
61054;SDS011;46939;48.940;8.258;2022-11-11T13:45:35;14.73;;;9.23;;
61054;SDS011;46939;48.940;8.258;2022-11-11T13:48:14;15.10;;;9.65;;
61054;SDS011;46939;48.940;8.258;2022-11-11T13:50:47;16.35;;;8.43;;
61054;SDS011;46939;48.940;8.258;2022-11-11T13:53:23;14.52;;;8.25;;
61054;SDS011;46939;48.940;8.258;2022-11-11T13:55:59;12.75;;;7.43;;
61054;SDS011;46939;48.940;8.258;2022-11-11T13:58:32;14.10;;;7.40;;
61054;SDS011;46939;48.940;8.258;2022-11-11T14:01:06;11.80;;;7.32;;
61054;SDS011;46939;48.940;8.258;2022-11-11T14:12:19;14.27;;;8.63;;
61054;SDS011;46939;48.940;8.258;2022-11-11T14:14:54;17.15;;;10.27;;
61054;SDS011;46939;48.940;8.258;2022-11-11T14:17:25;16.67;;;10.18;;
61054;SDS011;46939;48.940;8.258;2022-11-11T14:19:56;15.80;;;9.02;;
61054;SDS011;46939;48.940;8.258;2022-11-11T14:22:29;21.73;;;10.15;;
61054;SDS011;46939;48.940;8.258;2022-11-11T14:27:45;14.73;;;8.55;;
61054;SDS011;46939;48.940;8.258;2022-11-11T14:30:27;17.42;;;10.15;;
61054;SDS011;46939;48.940;8.258;2022-11-11T14:33:03;16.27;;;8.30;;
61054;SDS011;46939;48.940;8.258;2022-11-11T14:35:43;15.60;;;8.70;;
61054;SDS011;46939;48.940;8.258;2022-11-11T14:38:26;15.45;;;9.13;;
61054;SDS011;46939;48.940;8.258;2022-11-11T14:50:01;26.52;;;11.13;;
61054;SDS011;46939;48.940;8.258;2022-11-11T14:52:32;17.05;;;10.02;;
61054;SDS011;46939;48.940;8.258;2022-11-11T14:55:04;19.55;;;12.05;;
61054;SDS011;46939;48.940;8.258;2022-11-11T14:57:41;15.57;;;9.27;;
61054;SDS011;46939;48.940;8.258;2022-11-11T15:00:14;15.80;;;9.60;;
61054;SDS011;46939;48.940;8.258;2022-11-11T15:02:46;18.20;;;11.13;;
61054;SDS011;46939;48.940;8.258;2022-11-11T15:05:22;21.10;;;12.45;;
61054;SDS011;46939;48.940;8.258;2022-11-11T15:07:58;13.23;;;8.52;;
61054;SDS011;46939;48.940;8.258;2022-11-11T15:10:36;18.48;;;9.95;;
61054;SDS011;46939;48.940;8.258;2022-11-11T15:13:15;22.88;;;11.05;;
61054;SDS011;46939;48.940;8.258;2022-11-11T15:15:58;38.40;;;11.18;;
61054;SDS011;46939;48.940;8.258;2022-11-11T15:18:43;16.48;;;9.52;;
61054;SDS011;46939;48.940;8.258;2022-11-11T15:21:24;76.40;;;12.80;;
61054;SDS011;46939;48.940;8.258;2022-11-11T15:24:06;15.73;;;8.82;;
61054;SDS011;46939;48.940;8.258;2022-11-11T15:26:48;19.42;;;10.70;;
61054;SDS011;46939;48.940;8.258;2022-11-11T15:29:28;41.15;;;11.60;;
61054;SDS011;46939;48.940;8.258;2022-11-11T15:32:14;17.33;;;9.43;;
61054;SDS011;46939;48.940;8.258;2022-11-11T15:34:51;16.02;;;9.65;;
61054;SDS011;46939;48.940;8.258;2022-11-11T15:37:27;17.40;;;9.85;;
61054;SDS011;46939;48.940;8.258;2022-11-11T15:39:57;18.77;;;10.80;;
61054;SDS011;46939;48.940;8.258;2022-11-11T15:42:27;19.90;;;8.90;;
61054;SDS011;46939;48.940;8.258;2022-11-11T15:44:59;14.48;;;8.20;;
61054;SDS011;46939;48.940;8.258;2022-11-11T15:47:29;18.25;;;9.88;;